createdAt,value
2023-03-02T00:03:50.337Z,2.13
2023-03-02T00:08:47.378Z,2.88
2023-03-02T00:13:44.244Z,3.40
2023-03-02T00:18:41.922Z,2.28
2023-03-02T00:23:38.860Z,1.88
2023-03-02T00:28:35.672Z,2.88
2023-03-02T00:33:33.247Z,1.60
2023-03-02T00:38:30.932Z,2.80
2023-03-02T00:43:28.376Z,2.50
2023-03-02T00:48:25.444Z,3.55
2023-03-02T00:53:22.409Z,3.22
2023-03-02T00:58:21.292Z,2.40
2023-03-02T01:03:18.685Z,2.97
2023-03-02T01:08:15.985Z,2.03
2023-03-02T01:13:13.009Z,0.93
2023-03-02T01:18:12.125Z,1.58
2023-03-02T01:23:08.996Z,3.50
2023-03-02T01:28:06.007Z,1.48
2023-03-02T01:33:02.963Z,3.85
2023-03-02T01:38:00.544Z,2.28
2023-03-02T01:43:01.817Z,2.58
2023-03-02T01:47:58.742Z,1.83
2023-03-02T01:52:56.689Z,2.47
2023-03-02T01:57:56.686Z,1.75
2023-03-02T02:02:56.948Z,1.75
2023-03-02T02:07:54.329Z,4.05
2023-03-02T02:12:51.797Z,2.83
2023-03-02T02:17:51.448Z,2.65
2023-03-02T02:23:03.079Z,2.10
2023-03-02T02:28:03.333Z,2.72
2023-03-02T02:33:01.351Z,3.22
2023-03-02T02:38:03.061Z,3.13
2023-03-02T02:43:02.604Z,2.38
2023-03-02T02:47:59.622Z,3.40
2023-03-02T02:53:02.143Z,2.25
2023-03-02T02:58:08.659Z,3.33
2023-03-02T03:03:28.486Z,3.75
2023-03-02T03:08:56.405Z,4.35
2023-03-02T03:14:05.288Z,3.60
2023-03-02T03:19:08.047Z,2.47
2023-03-02T03:24:05.938Z,2.92
2023-03-02T03:29:04.435Z,3.67
2023-03-02T03:34:02.043Z,4.20
2023-03-02T03:39:05.365Z,4.00
2023-03-02T03:44:04.356Z,5.40
2023-03-02T03:49:04.563Z,3.97
2023-03-02T03:54:02.854Z,3.63
2023-03-02T03:59:08.042Z,2.67
2023-03-02T04:04:15.885Z,2.53
2023-03-02T04:09:14.832Z,4.18
2023-03-02T04:14:15.010Z,6.50
2023-03-02T04:19:13.358Z,3.25
2023-03-02T04:24:17.642Z,4.57
2023-03-02T04:29:16.134Z,5.63
2023-03-02T04:34:15.138Z,2.63
2023-03-02T04:39:16.413Z,5.13
2023-03-02T04:44:18.392Z,3.45
2023-03-02T04:49:17.098Z,3.65
2023-03-02T04:54:17.141Z,2.97
2023-03-02T04:59:14.216Z,4.63
2023-03-02T05:04:18.057Z,2.67
2023-03-02T05:09:15.589Z,4.22
2023-03-02T05:14:13.151Z,3.78
2023-03-02T05:19:11.528Z,3.45
2023-03-02T05:24:09.320Z,3.30
2023-03-02T05:29:06.451Z,4.05
2023-03-02T05:34:04.480Z,3.15
2023-03-02T05:39:02.328Z,3.80
2023-03-02T05:44:00.327Z,2.97
2023-03-02T05:48:57.388Z,3.30
2023-03-02T05:53:54.332Z,4.80
2023-03-02T05:58:51.317Z,3.67
2023-03-02T06:03:49.247Z,3.90
2023-03-02T06:08:46.261Z,3.55
2023-03-02T06:13:43.253Z,4.43
2023-03-02T06:18:41.544Z,4.00
2023-03-02T06:23:39.278Z,4.72
2023-03-02T06:28:51.452Z,2.67
2023-03-02T06:33:49.630Z,3.30
2023-03-02T06:38:47.560Z,5.22
2023-03-02T06:43:44.798Z,3.90
2023-03-02T06:48:41.920Z,4.38
2023-03-02T06:53:39.078Z,4.28
2023-03-02T06:58:42.401Z,6.63
2023-03-02T07:03:45.983Z,3.20
2023-03-02T07:08:43.217Z,3.47
2023-03-02T07:13:41.861Z,2.22
2023-03-02T07:18:39.259Z,3.20
2023-03-02T07:23:36.348Z,4.05
2023-03-02T07:28:41.405Z,2.88
2023-03-02T07:33:41.973Z,3.25
2023-03-02T07:38:39.342Z,2.10
2023-03-02T07:43:36.913Z,2.83
2023-03-02T07:48:34.930Z,3.72
2023-03-02T07:53:33.127Z,3.53
2023-03-02T07:58:29.887Z,4.38
2023-03-02T08:03:26.661Z,3.60
2023-03-02T08:08:23.626Z,4.38
2023-03-02T08:13:21.195Z,5.30
2023-03-02T08:18:18.051Z,3.65
2023-03-02T08:23:14.840Z,3.10
2023-03-02T08:28:11.678Z,6.45
2023-03-02T08:33:09.356Z,3.28
2023-03-02T08:38:06.172Z,5.07
2023-03-02T08:43:03.168Z,2.75
2023-03-02T08:47:59.972Z,4.85
2023-03-02T08:52:57.824Z,3.88
2023-03-02T08:57:55.070Z,4.00
2023-03-02T09:02:52.051Z,5.32
2023-03-02T09:07:48.935Z,3.15
2023-03-02T09:12:46.401Z,4.65
2023-03-02T09:17:43.277Z,5.43
2023-03-02T09:22:41.867Z,4.47
2023-03-02T09:27:38.691Z,5.18
2023-03-02T09:32:38.894Z,5.10
2023-03-02T09:37:38.412Z,3.78
2023-03-02T09:42:54.245Z,5.35
2023-03-02T09:48:01.811Z,3.88
2023-03-02T09:53:20.998Z,5.20
2023-03-02T09:58:20.550Z,4.55
2023-03-02T10:03:21.460Z,4.43
2023-03-02T10:08:22.302Z,5.32
2023-03-02T10:13:25.074Z,5.25
2023-03-02T10:18:28.889Z,6.82
2023-03-02T10:23:41.599Z,6.68
2023-03-02T10:28:44.408Z,5.20
2023-03-02T10:33:42.170Z,5.38
2023-03-02T10:38:39.595Z,2.67
2023-03-02T10:43:45.193Z,5.35
2023-03-02T10:48:55.588Z,5.63
2023-03-02T10:54:06.966Z,4.15
2023-03-02T10:59:38.734Z,4.75
2023-03-02T11:04:36.426Z,4.53
2023-03-02T11:09:33.359Z,3.97
2023-03-02T11:14:30.242Z,3.38
2023-03-02T11:19:35.184Z,5.07
2023-03-02T11:24:38.999Z,3.07
2023-03-02T11:29:41.891Z,3.17
2023-03-02T11:34:46.221Z,1.17
2023-03-02T11:40:13.186Z,2.65
2023-03-02T11:45:19.572Z,3.58
2023-03-02T11:50:17.345Z,3.45
2023-03-02T11:55:18.699Z,3.05
2023-03-02T12:00:27.304Z,1.77
2023-03-02T12:05:30.852Z,3.97
2023-03-02T12:10:35.643Z,33.22
2023-03-02T12:15:39.477Z,26.58
2023-03-02T12:20:36.895Z,27.00
2023-03-02T12:25:41.312Z,31.33
2023-03-02T12:30:38.069Z,28.02
2023-03-02T12:35:35.825Z,30.13
2023-03-02T12:40:59.389Z,26.48
2023-03-02T12:46:25.997Z,28.90
2023-03-02T12:51:25.359Z,25.08
2023-03-02T12:56:24.378Z,27.95
2023-03-02T13:01:26.826Z,27.35
2023-03-02T13:06:27.853Z,24.65
2023-03-02T13:11:29.794Z,23.73
2023-03-02T13:16:29.187Z,23.67
2023-03-02T13:21:32.351Z,26.77
2023-03-02T13:26:31.272Z,21.25
2023-03-02T13:31:28.512Z,23.98
2023-03-02T13:36:37.978Z,27.77
2023-03-02T13:41:53.440Z,26.50
2023-03-02T13:46:50.336Z,25.83
2023-03-02T13:51:47.840Z,25.38
2023-03-02T13:56:53.789Z,26.52
2023-03-02T14:01:51.007Z,24.88
2023-03-02T14:06:51.696Z,24.75
2023-03-02T14:11:52.528Z,22.48
2023-03-02T14:16:50.270Z,20.17
2023-03-02T14:21:47.356Z,25.58
2023-03-02T14:26:47.250Z,22.70
2023-03-02T14:31:45.243Z,23.52
2023-03-02T14:36:45.507Z,21.50
2023-03-02T14:41:53.025Z,19.75
2023-03-02T14:46:50.992Z,24.27
2023-03-02T14:52:00.290Z,23.50
2023-03-02T14:56:57.098Z,24.92
2023-03-02T15:01:55.713Z,24.20
2023-03-02T15:06:54.840Z,26.55
2023-03-02T15:11:51.723Z,20.52
2023-03-02T15:16:48.601Z,23.20
2023-03-02T15:21:45.916Z,24.63
2023-03-02T15:26:43.385Z,24.02
2023-03-02T15:31:43.190Z,22.73
2023-03-02T15:36:40.893Z,24.75
2023-03-02T15:41:37.892Z,23.45
2023-03-02T15:46:35.533Z,25.88
2023-03-02T15:51:32.415Z,23.00
2023-03-02T15:56:38.784Z,21.83
2023-03-02T16:01:41.140Z,23.63
2023-03-02T16:06:38.446Z,19.75
2023-03-02T16:11:35.578Z,24.25
2023-03-02T16:16:32.643Z,22.92
2023-03-02T16:21:30.952Z,24.25
2023-03-02T16:26:27.941Z,23.20
2023-03-02T16:31:26.455Z,24.45
2023-03-02T16:36:23.454Z,22.23
2023-03-02T16:41:22.730Z,22.25
2023-03-02T16:46:21.304Z,26.23
2023-03-02T16:51:19.328Z,21.83
2023-03-02T16:56:16.462Z,25.40
2023-03-02T17:01:16.361Z,24.02
2023-03-02T17:06:15.265Z,25.08
2023-03-02T17:11:12.328Z,25.17
2023-03-02T17:16:09.598Z,28.83
2023-03-02T17:21:08.267Z,31.15
2023-03-02T17:26:06.240Z,27.20
2023-03-02T17:31:04.498Z,23.20
2023-03-02T17:36:09.106Z,28.95
2023-03-02T17:41:07.702Z,27.15
2023-03-02T17:46:11.453Z,31.92
2023-03-02T17:51:11.181Z,31.48
2023-03-02T17:56:09.114Z,26.77
2023-03-02T18:01:06.291Z,26.15
2023-03-02T18:06:04.078Z,24.05
2023-03-02T18:11:00.930Z,22.65
2023-03-02T18:16:01.863Z,24.95
2023-03-02T18:21:01.698Z,28.55
2023-03-02T18:26:01.867Z,28.08
2023-03-02T18:30:59.725Z,29.92
2023-03-02T18:35:56.682Z,27.40
2023-03-02T18:40:53.430Z,27.40
2023-03-02T18:45:50.303Z,29.02
2023-03-02T18:50:48.125Z,24.77
2023-03-02T18:55:46.594Z,25.00
2023-03-02T19:00:45.214Z,27.75
2023-03-02T19:05:42.856Z,27.25
2023-03-02T19:10:41.661Z,21.77
2023-03-02T19:15:39.365Z,22.73
2023-03-02T19:20:36.153Z,25.05
2023-03-02T19:25:33.334Z,25.10
2023-03-02T19:30:31.425Z,25.48
2023-03-02T19:35:29.456Z,21.42
2023-03-02T19:40:29.296Z,25.27
2023-03-02T19:45:29.080Z,23.77
2023-03-02T19:50:28.308Z,20.83
2023-03-02T19:55:26.309Z,22.80
2023-03-02T20:00:24.140Z,21.20
2023-03-02T20:05:25.498Z,23.42
2023-03-02T20:10:32.824Z,22.58
2023-03-02T20:15:31.980Z,23.52
2023-03-02T20:20:29.379Z,25.65
2023-03-02T20:25:28.449Z,31.23
2023-03-02T20:30:30.345Z,29.27
2023-03-02T20:35:30.871Z,29.67
2023-03-02T20:40:29.363Z,29.38
2023-03-02T20:45:27.740Z,30.65
2023-03-02T20:50:29.735Z,24.02
2023-03-02T20:55:28.793Z,25.73
2023-03-02T21:00:27.966Z,24.95
2023-03-02T21:05:26.356Z,27.63
2023-03-02T21:10:25.872Z,25.25
2023-03-02T21:15:26.572Z,23.13
2023-03-02T21:20:27.937Z,25.70
2023-03-02T21:25:27.848Z,25.88
2023-03-02T21:30:33.412Z,27.13
2023-03-02T21:35:30.835Z,24.95
2023-03-02T21:40:32.247Z,26.30
2023-03-02T21:45:30.338Z,25.48
2023-03-02T21:50:31.937Z,25.30
2023-03-02T21:55:33.082Z,26.42
2023-03-02T22:00:34.401Z,27.00
2023-03-02T22:05:31.821Z,22.02
2023-03-02T22:10:32.863Z,23.33
2023-03-02T22:15:31.088Z,27.35
2023-03-02T22:20:31.743Z,28.63
2023-03-02T22:25:28.554Z,27.90
2023-03-02T22:30:26.110Z,28.63
2023-03-02T22:35:26.384Z,25.55
2023-03-02T22:40:29.056Z,22.77
2023-03-02T22:45:26.360Z,24.13
2023-03-02T22:50:26.814Z,25.65
2023-03-02T22:55:36.911Z,27.15
2023-03-02T23:00:37.287Z,26.33
2023-03-02T23:05:35.171Z,22.17
2023-03-02T23:10:32.825Z,27.80
2023-03-02T23:15:36.114Z,23.55
2023-03-02T23:20:34.373Z,27.27
2023-03-02T23:25:31.465Z,28.23
2023-03-02T23:30:28.611Z,26.33
2023-03-02T23:35:26.379Z,24.52
2023-03-02T23:40:24.942Z,21.52
2023-03-02T23:45:22.515Z,22.17
2023-03-02T23:50:20.510Z,24.98
2023-03-02T23:55:17.963Z,22.73
